Time,TemperatureF,DewpointF,PressureIn,WindDirection,WindDirectionDegrees,WindSpeedMPH,WindSpeedGustMPH,Humidity,HourlyPrecipIn,Conditions,Clouds,dailyrainin,SoftwareType,DateUTC
2013-09-28 00:25:00,53.0,50.0,-100.00,North,10,0.0,1.0,88,0.00,,,-99.99,,2013-09-28 04:25:00,
2013-09-28 00:34:00,53.0,50.0,-100.00,North,10,0.0,1.0,88,0.00,,,-99.99,,2013-09-28 04:34:00,
2013-09-28 00:54:00,52.0,49.0,-100.00,NE,55,1.0,2.0,90,0.00,,,-99.99,,2013-09-28 04:54:00,
2013-09-28 01:03:00,52.0,49.0,-100.00,NE,55,1.0,2.0,90,0.00,,,-99.99,,2013-09-28 05:03:00,
2013-09-28 01:22:00,51.0,49.0,-100.00,NE,35,1.0,1.0,90,0.00,,,-99.99,,2013-09-28 05:22:00,
2013-09-28 01:34:00,51.0,49.0,-100.00,NE,35,1.0,1.0,90,0.00,,,-99.99,,2013-09-28 05:34:00,
2013-09-28 01:53:00,50.0,47.0,-100.00,NNW,340,0.0,1.0,89,0.00,,,-99.99,,2013-09-28 05:53:00,
2013-09-28 02:22:00,50.0,47.0,-100.00,WNW,290,0.0,1.0,89,0.00,,,-99.99,,2013-09-28 06:22:00,
2013-09-28 02:32:00,50.0,47.0,-100.00,WNW,290,0.0,1.0,89,0.00,,,-99.99,,2013-09-28 06:32:00,
2013-09-28 02:52:00,51.0,48.0,-100.00,NNE,25,0.0,1.0,89,0.00,,,-99.99,,2013-09-28 06:52:00,
2013-09-28 03:12:00,50.0,47.0,-100.00,NW,320,0.0,1.0,88,0.00,,,-99.99,,2013-09-28 07:12:00,
2013-09-28 03:22:00,49.0,46.0,-100.00,NE,40,0.0,0.0,88,0.00,,,-99.99,,2013-09-28 07:22:00,
2013-09-28 03:32:00,49.0,46.0,-100.00,NE,40,0.0,0.0,88,0.00,,,-99.99,,2013-09-28 07:32:00,
2013-09-28 03:52:00,49.0,46.0,-100.00,NE,45,0.0,1.0,89,0.00,,,-99.99,,2013-09-28 07:52:00,
2013-09-28 04:21:00,48.0,46.0,-100.00,North,10,0.0,1.0,90,0.00,,,-99.99,,2013-09-28 08:21:00,
2013-09-28 04:43:00,48.0,46.0,-100.00,North,0,0.0,2.0,90,0.00,,,-99.99,,2013-09-28 08:43:00,
2013-09-28 04:53:00,48.0,46.0,-100.00,North,0,0.0,2.0,90,0.00,,,-99.99,,2013-09-28 08:53:00,
2013-09-28 05:11:00,47.0,45.0,-100.00,SW,235,0.0,1.0,90,0.00,,,-99.99,,2013-09-28 09:11:00,
2013-09-28 05:22:00,47.0,45.0,-100.00,SW,235,0.0,1.0,90,0.00,,,-99.99,,2013-09-28 09:22:00,
2013-09-28 05:33:00,47.0,45.0,-100.00,SW,235,0.0,1.0,90,0.00,,,-99.99,,2013-09-28 09:33:00,
2013-09-28 05:54:00,47.0,44.0,-100.00,NNE,15,0.0,1.0,90,0.00,,,-99.99,,2013-09-28 09:54:00,
2013-09-28 06:13:00,46.0,43.0,-100.00,North,5,1.0,1.0,90,0.00,,,-99.99,,2013-09-28 10:13:00,
2013-09-28 06:22:00,46.0,43.0,-100.00,North,5,1.0,1.0,90,0.00,,,-99.99,,2013-09-28 10:22:00,
2013-09-28 06:43:00,46.0,43.0,-100.00,North,0,1.0,2.0,90,0.00,,,-99.99,,2013-09-28 10:43:00,
2013-09-28 06:52:00,46.0,43.0,-100.00,North,0,1.0,2.0,90,0.00,,,-99.99,,2013-09-28 10:52:00,
2013-09-28 07:12:00,46.0,43.0,-100.00,NNW,330,0.0,1.0,90,0.00,,,-99.99,,2013-09-28 11:12:00,
2013-09-28 07:22:00,46.0,43.0,-100.00,NNW,330,0.0,1.0,90,0.00,,,-99.99,,2013-09-28 11:22:00,
2013-09-28 07:52:00,46.0,43.0,-100.00,North,355,1.0,3.0,88,0.00,,,-99.99,,2013-09-28 11:52:00,
2013-09-28 08:01:00,46.0,43.0,-100.00,North,355,1.0,3.0,88,0.00,,,-99.99,,2013-09-28 12:01:00,
2013-09-28 08:11:00,48.0,44.0,-100.00,NNE,25,0.0,2.0,84,0.00,,,-99.99,,2013-09-28 12:11:00,
2013-09-28 08:12:00,46.0,43.0,-100.00,North,355,1.0,3.0,88,0.00,,,-99.99,,2013-09-28 12:12:00,
2013-09-28 08:22:00,46.0,43.0,-100.00,North,355,1.0,3.0,88,0.00,,,-99.99,,2013-09-28 12:22:00,
2013-09-28 08:42:00,48.0,44.0,-100.00,NNE,25,0.0,2.0,84,0.00,,,-99.99,,2013-09-28 12:42:00,
2013-09-28 08:52:00,48.0,44.0,-100.00,NNE,25,0.0,2.0,84,0.00,,,-99.99,,2013-09-28 12:52:00,
2013-09-28 09:02:00,48.0,44.0,-100.00,NNE,25,0.0,2.0,84,0.00,,,-99.99,,2013-09-28 13:02:00,
2013-09-28 09:52:00,59.0,51.0,-100.00,South,180,1.0,3.0,74,0.00,,,-99.99,,2013-09-28 13:52:00,
2013-09-28 10:02:00,59.0,51.0,-100.00,South,180,1.0,3.0,74,0.00,,,-99.99,,2013-09-28 14:02:00,
2013-09-28 10:21:00,62.0,53.0,-100.00,SSE,150,1.0,4.0,72,0.00,,,-99.99,,2013-09-28 14:21:00,
2013-09-28 10:32:00,62.0,53.0,-100.00,SSE,150,1.0,4.0,72,0.00,,,-99.99,,2013-09-28 14:32:00,
2013-09-28 10:52:00,63.0,52.0,-100.00,SE,135,5.0,9.0,65,0.00,,,-99.99,,2013-09-28 14:52:00,
2013-09-28 11:12:00,64.0,53.0,-100.00,SSE,160,6.0,9.0,66,0.00,,,-99.99,,2013-09-28 15:12:00,
2013-09-28 11:23:00,64.0,53.0,-100.00,SSE,160,6.0,9.0,66,0.00,,,-99.99,,2013-09-28 15:23:00,
2013-09-28 11:34:00,64.0,53.0,-100.00,SSE,160,6.0,9.0,66,0.00,,,-99.99,,2013-09-28 15:34:00,
2013-09-28 11:54:00,66.0,53.0,-100.00,SSE,165,6.0,10.0,61,0.00,,,-99.99,,2013-09-28 15:54:00,
2013-09-28 12:14:00,67.0,53.0,-100.00,SE,145,6.0,10.0,61,0.00,,,-99.99,,2013-09-28 16:14:00,
2013-09-28 12:24:00,68.0,53.0,-100.00,ESE,105,4.0,8.0,57,0.00,,,-99.99,,2013-09-28 16:24:00,
2013-09-28 12:54:00,70.0,53.0,-100.00,East,100,2.0,11.0,56,0.00,,,-99.99,,2013-09-28 16:54:00,
2013-09-28 13:03:00,70.0,53.0,-100.00,East,100,2.0,11.0,56,0.00,,,-99.99,,2013-09-28 17:03:00,
2013-09-28 13:13:00,70.0,53.0,-100.00,East,100,2.0,11.0,56,0.00,,,-99.99,,2013-09-28 17:13:00,
2013-09-28 13:23:00,71.0,50.0,-100.00,SE,145,7.0,12.0,47,0.00,,,-99.99,,2013-09-28 17:23:00,
2013-09-28 13:31:00,73.0,51.0,-100.00,East,90,5.0,12.0,45,0.00,,,-99.99,,2013-09-28 17:31:00,
2013-09-28 13:52:00,73.0,51.0,-100.00,East,90,5.0,12.0,45,0.00,,,-99.99,,2013-09-28 17:52:00,
2013-09-28 14:02:00,73.0,51.0,-100.00,East,90,5.0,12.0,45,0.00,,,-99.99,,2013-09-28 18:02:00,
2013-09-28 14:12:00,73.0,51.0,-100.00,East,90,5.0,12.0,45,0.00,,,-99.99,,2013-09-28 18:12:00,
2013-09-28 14:22:00,73.0,51.0,-100.00,East,90,5.0,12.0,45,0.00,,,-99.99,,2013-09-28 18:22:00,
2013-09-28 14:52:00,74.0,50.0,-100.00,SSE,155,4.0,9.0,43,0.00,,,-99.99,,2013-09-28 18:52:00,
2013-09-28 15:02:00,74.0,50.0,-100.00,SSE,155,4.0,9.0,43,0.00,,,-99.99,,2013-09-28 19:02:00,
2013-09-28 15:11:00,74.0,50.0,-100.00,SSE,155,4.0,9.0,43,0.00,,,-99.99,,2013-09-28 19:11:00,
2013-09-28 15:22:00,74.0,50.0,-100.00,South,180,8.0,15.0,41,0.00,,,-99.99,,2013-09-28 19:22:00,
2013-09-28 15:32:00,74.0,50.0,-100.00,South,180,8.0,15.0,41,0.00,,,-99.99,,2013-09-28 19:32:00,
2013-09-28 15:42:00,74.0,50.0,-100.00,South,180,8.0,15.0,41,0.00,,,-99.99,,2013-09-28 19:42:00,
2013-09-28 15:52:00,74.0,50.0,-100.00,SSE,155,6.0,12.0,43,0.00,,,-99.99,,2013-09-28 19:52:00,
2013-09-28 16:03:00,74.0,50.0,-100.00,SSE,155,6.0,12.0,43,0.00,,,-99.99,,2013-09-28 20:03:00,
2013-09-28 16:12:00,74.0,50.0,-100.00,SSE,155,6.0,12.0,43,0.00,,,-99.99,,2013-09-28 20:12:00,
2013-09-28 16:23:00,74.0,50.0,-100.00,ESE,120,7.0,12.0,43,0.00,,,-99.99,,2013-09-28 20:23:00,
2013-09-28 16:33:00,74.0,50.0,-100.00,ESE,120,7.0,12.0,43,0.00,,,-99.99,,2013-09-28 20:33:00,
2013-09-28 16:43:00,74.0,50.0,-100.00,ESE,120,7.0,12.0,43,0.00,,,-99.99,,2013-09-28 20:43:00,
2013-09-28 16:53:00,74.0,50.0,-100.00,ESE,120,7.0,12.0,43,0.00,,,-99.99,,2013-09-28 20:53:00,
2013-09-28 17:12:00,74.0,51.0,-100.00,SSE,160,7.0,13.0,44,0.00,,,-99.99,,2013-09-28 21:12:00,
2013-09-28 17:23:00,74.0,51.0,-100.00,SSE,160,7.0,13.0,44,0.00,,,-99.99,,2013-09-28 21:23:00,
2013-09-28 17:55:00,73.0,50.0,-100.00,SE,130,6.0,14.0,44,0.00,,,-99.99,,2013-09-28 21:55:00,
2013-09-28 18:14:00,73.0,51.0,-100.00,East,95,4.0,11.0,46,0.00,,,-99.99,,2013-09-28 22:14:00,
2013-09-28 18:23:00,73.0,51.0,-100.00,East,95,4.0,11.0,46,0.00,,,-99.99,,2013-09-28 22:23:00,
2013-09-28 18:41:00,71.0,52.0,-100.00,ENE,75,1.0,7.0,51,0.00,,,-99.99,,2013-09-28 22:41:00,
2013-09-28 18:43:00,72.0,51.0,-100.00,SE,140,7.0,11.0,47,0.00,,,-99.99,,2013-09-28 22:43:00,
2013-09-28 18:54:00,71.0,51.0,-100.00,SE,135,5.0,7.0,49,0.00,,,-99.99,,2013-09-28 22:54:00,
2013-09-28 19:12:00,71.0,52.0,-100.00,ENE,75,1.0,7.0,51,0.00,,,-99.99,,2013-09-28 23:12:00,
2013-09-28 19:22:00,71.0,52.0,-100.00,ENE,75,1.0,7.0,51,0.00,,,-99.99,,2013-09-28 23:22:00,
2013-09-28 19:34:00,71.0,52.0,-100.00,ENE,75,1.0,7.0,51,0.00,,,-99.99,,2013-09-28 23:34:00,
2013-09-28 20:22:00,67.0,52.0,-100.00,ESE,105,3.0,6.0,58,0.00,,,-99.99,,2013-09-29 00:22:00,
2013-09-28 20:32:00,67.0,52.0,-100.00,ESE,105,3.0,6.0,58,0.00,,,-99.99,,2013-09-29 00:32:00,
2013-09-28 20:43:00,67.0,52.0,-100.00,ESE,105,3.0,6.0,58,0.00,,,-99.99,,2013-09-29 00:43:00,
2013-09-28 20:51:00,65.0,51.0,-100.00,ESE,115,3.0,11.0,60,0.00,,,-99.99,,2013-09-29 00:51:00,
2013-09-28 20:52:00,65.0,51.0,-100.00,ESE,120,4.0,9.0,60,0.00,,,-99.99,,2013-09-29 00:52:00,
2013-09-28 21:22:00,65.0,51.0,-100.00,ESE,115,3.0,11.0,60,0.00,,,-99.99,,2013-09-29 01:22:00,
2013-09-28 21:32:00,65.0,51.0,-100.00,ESE,115,3.0,11.0,60,0.00,,,-99.99,,2013-09-29 01:32:00,
2013-09-28 21:43:00,65.0,51.0,-100.00,ESE,115,3.0,11.0,60,0.00,,,-99.99,,2013-09-29 01:43:00,
2013-09-28 22:21:00,62.0,49.0,-100.00,ESE,120,6.0,16.0,63,0.00,,,-99.99,,2013-09-29 02:21:00,
2013-09-28 22:22:00,62.0,50.0,-100.00,East,100,6.0,13.0,63,0.00,,,-99.99,,2013-09-29 02:22:00,
2013-09-28 22:33:00,62.0,50.0,-100.00,East,100,6.0,13.0,63,0.00,,,-99.99,,2013-09-29 02:33:00,
2013-09-28 22:53:00,62.0,49.0,-100.00,ESE,120,6.0,16.0,63,0.00,,,-99.99,,2013-09-29 02:53:00,
2013-09-28 23:03:00,62.0,49.0,-100.00,ESE,120,6.0,16.0,63,0.00,,,-99.99,,2013-09-29 03:03:00,
2013-09-28 23:12:00,62.0,49.0,-100.00,ESE,120,6.0,16.0,63,0.00,,,-99.99,,2013-09-29 03:12:00,
2013-09-28 23:44:00,60.0,48.0,-100.00,East,95,6.0,11.0,64,0.00,,,-99.99,,2013-09-29 03:44:00,
2013-09-28 23:55:00,60.0,48.0,-100.00,ESE,110,3.0,7.0,65,0.00,,,-99.99,,2013-09-29 03:55:00,